Main page
METAR-TAF:

METAR-TAF

Airports :

Bata Airport

Bata, Equatorial Guinea

latitude: 1-54-15N, longitude: 9-48-15E, elevation: 4 m

METAR: missing

Time: 19:38 (18:38 UTC)

Forecast

The report was made 1 hour and 38 minutes ago, at 17:00 UTC
Forecast valid from 25 at 18 UTC to 26 at 18 UTC
Wind 6 kt from the Southwest
Visibility 10 km or more
Scattered clouds at a height of 1000 ft
Probability 40% :
Temporary
from 26 at 02 UTC to 26 at 07 UTC
Visibility: 4000 m
Broken clouds at a height of 800 ft
Few clouds at a height of 1500 ft, Cumulonimbus.
thunderstorm, rain
Probability 30% :
Temporary
from 26 at 13 UTC to 26 at 18 UTC
Broken clouds at a height of 1000 ft
Few clouds at a height of 1800 ft, Cumulonimbus.
thunderstorm

TAF: FGBT 251700Z 2518/2618 23006KT 9999 SCT010 PROB40 TEMPO 2602/2607 4000 TSRA BKN008 FEW015CB PROB30 TEMPO 2613/2618 TS BKN010 FEW018CB

Weather observations and forecasts of more than 4000 airports (METAR and TAF reports).

The available stations are represented by yellow and red dots on the map.

Hover mouse over dot to see the name of the station.

Then click to see weather observations and forecasts.

To change the map : click on the green buttons with a black cross to zoom in, on the green button with a dash to zoom out, or on the green arrows for adjacent maps.


METAR-TAF: